This is the latest recevied weather packets stored in our database for station/object OE-11099. If no packets are shown the sender has not sent any weather packets the latest 10 day(s).
| Time | Temp. | Humidity | Pressure | Rain* | Wind** | Luminosity | Snow |
|---|---|---|---|---|---|---|---|
| 1787739079 | 26.67° C | 52% | 1014.2 hPa | 0 mm | - | 725 W/m² | - |
| 1787738706 | 26.67° C | 50% | 1014.2 hPa | 0 mm | - | 725 W/m² | - |
| 1787738106 | 25.56° C | 51% | 1014.5 hPa | 0 mm | - | 718 W/m² | - |
| 1787737279 | 24.44° C | 52% | 1014.9 hPa | 0 mm | - | 698 W/m² | - |
| 1787736905 | 23.89° C | 51% | 1015 hPa | 0 mm | - | 678 W/m² | - |
| 1787736306 | 23.89° C | 52% | 1015.1 hPa | 0 mm | - | 672 W/m² | - |
| 1787735479 | 23.33° C | 56% | 1015.3 hPa | 0 mm | - | 638 W/m² | - |
| 1787735106 | 23.33° C | 58% | 1015.5 hPa | 0 mm | - | 632 W/m² | - |
| 1787733679 | 22.78° C | 56% | 1015.6 hPa | 0 mm | - | 592 W/m² | - |
| 1787733306 | 22.22° C | 57% | 1015.8 hPa | 0 mm | - | 572 W/m² | - |
| 1787732705 | 21.67° C | 61% | 1016 hPa | 0 mm | - | 545 W/m² | - |
| 1787731879 | 21.67° C | 63% | 1016.1 hPa | 0 mm | - | 525 W/m² | - |
| 1787731506 | 21.11° C | 66% | 1016.2 hPa | 0 mm | - | 499 W/m² | - |
| 1787730906 | 20° C | 66% | 1016.5 hPa | 0 mm | - | 472 W/m² | - |
| 1787730079 | 20.56° C | 69% | 1016.2 hPa | 0 mm | - | 452 W/m² | - |
| 1787729706 | 19.44° C | 74% | 1016.6 hPa | 0 mm | - | 253 W/m² | - |
| 1787729106 | 18.89° C | 74% | 1016.7 hPa | 0 mm | - | 359 W/m² | - |
| 1787728278 | 18.33° C | 78% | 1016.7 hPa | 0 mm | - | 253 W/m² | - |
| 1787727906 | 17.78° C | 79% | 1016.6 hPa | 0 mm | - | 100 W/m² | - |
| 1787727306 | 17.78° C | 79% | 1016.6 hPa | 0 mm | - | 146 W/m² | - |
| 1787726717 | 17.78° C | 80% | 1016.5 hPa | 0 mm | - | 160 W/m² | - |
| 1787726106 | 17.78° C | 78% | 1016.5 hPa | 0 mm | - | 113 W/m² | - |
| 1787725506 | 16.67° C | 77% | 1016.7 hPa | 0 mm | - | 93 W/m² | - |
| 1787724678 | 16.67° C | 82% | 1016.8 hPa | 0 mm | - | 60 W/m² | - |
| 1787724306 | 16.67° C | 80% | 1016.7 hPa | 0 mm | - | 47 W/m² | - |
* Rain latest hour (hover to see other rain measurements)
** Current wind speed in m/s (hover to see current wind gust speed)